createdAt,value
2019-05-03T00:01:03.694Z,58.59
2019-05-03T00:03:33.719Z,58.59
2019-05-03T00:06:05.575Z,58.72
2019-05-03T00:08:35.617Z,58.90
2019-05-03T00:11:05.663Z,59.19
2019-05-03T00:13:35.725Z,59.48
2019-05-03T00:16:21.923Z,59.48
2019-05-03T00:18:52.712Z,59.51
2019-05-03T00:21:22.730Z,59.48
2019-05-03T00:23:52.794Z,59.48
2019-05-03T00:26:22.834Z,59.59
2019-05-03T00:28:52.887Z,59.59
2019-05-03T00:31:22.948Z,59.48
2019-05-03T00:33:56.907Z,59.26
2019-05-03T00:36:36.054Z,59.10
2019-05-03T00:39:24.624Z,58.88
2019-05-03T00:41:54.688Z,58.88
2019-05-03T00:44:24.713Z,58.75
2019-05-03T00:46:54.745Z,58.47
2019-05-03T00:49:24.794Z,58.74
2019-05-03T00:51:54.812Z,58.63
2019-05-03T00:54:24.912Z,58.63
2019-05-03T00:56:54.948Z,58.64
2019-05-03T00:59:25.010Z,58.71
2019-05-03T01:01:55.045Z,58.85
2019-05-03T01:04:25.084Z,59.08
2019-05-03T01:06:55.114Z,58.95
2019-05-03T01:09:26.518Z,58.93
2019-05-03T01:11:56.547Z,58.80
2019-05-03T01:14:26.578Z,58.97
2019-05-03T01:16:56.641Z,58.39
2019-05-03T01:19:26.662Z,58.88
2019-05-03T01:21:56.822Z,59.08
2019-05-03T01:24:26.837Z,59.13
2019-05-03T01:26:56.890Z,59.09
2019-05-03T01:29:26.926Z,59.05
2019-05-03T01:31:56.998Z,59.10
2019-05-03T01:34:27.819Z,59.17
2019-05-03T01:36:57.883Z,59.33
2019-05-03T01:39:27.900Z,59.42
2019-05-03T01:41:57.998Z,59.42
2019-05-03T01:44:28.032Z,59.75
2019-05-03T01:46:59.860Z,59.60
2019-05-03T01:49:38.331Z,59.50
2019-05-03T01:52:12.861Z,59.62
2019-05-03T01:54:42.855Z,59.49
2019-05-03T01:57:12.980Z,59.41
2019-05-03T01:59:43.018Z,59.46
2019-05-03T02:02:35.339Z,59.53
2019-05-03T02:05:39.698Z,59.47
2019-05-03T02:08:12.581Z,59.33
2019-05-03T02:10:43.833Z,58.92
2019-05-03T02:13:13.884Z,58.87
2019-05-03T02:15:43.918Z,58.87
2019-05-03T02:18:15.116Z,58.77
2019-05-03T02:20:45.267Z,58.63
2019-05-03T02:23:15.325Z,58.44
2019-05-03T02:25:55.564Z,58.56
2019-05-03T02:28:18.070Z,58.58
2019-05-03T02:30:48.081Z,58.82
2019-05-03T02:33:18.110Z,58.60
2019-05-03T02:35:48.168Z,58.62
2019-05-03T02:38:19.262Z,58.40
2019-05-03T02:40:49.317Z,58.51
2019-05-03T02:43:26.024Z,58.89
2019-05-03T02:46:12.249Z,58.98
2019-05-03T02:48:52.018Z,58.98
2019-05-03T02:51:22.062Z,59.22
2019-05-03T02:53:52.091Z,59.36
2019-05-03T02:56:25.357Z,59.42
2019-05-03T02:58:55.777Z,59.32
2019-05-03T03:01:26.544Z,59.08
2019-05-03T03:03:56.957Z,58.89
2019-05-03T03:06:27.155Z,58.86
2019-05-03T03:08:58.638Z,58.93
2019-05-03T03:11:29.867Z,58.99
2019-05-03T03:14:00.097Z,58.97
2019-05-03T03:16:30.117Z,58.84
2019-05-03T03:19:00.252Z,58.73
2019-05-03T03:21:32.211Z,58.67
2019-05-03T03:24:08.817Z,58.45
2019-05-03T03:26:43.103Z,58.41
2019-05-03T03:29:12.143Z,58.24
2019-05-03T03:31:57.849Z,57.99
2019-05-03T03:34:30.506Z,57.97
2019-05-03T03:37:04.956Z,58.38
2019-05-03T03:39:32.379Z,58.83
2019-05-03T03:42:05.129Z,58.99
2019-05-03T03:44:36.347Z,58.99
2019-05-03T03:47:06.005Z,58.99
2019-05-03T03:49:36.030Z,58.65
2019-05-03T03:52:06.323Z,58.88
2019-05-03T03:54:36.306Z,59.00
2019-05-03T03:57:08.201Z,58.97
2019-05-03T03:59:38.123Z,58.56
2019-05-03T04:02:08.174Z,58.56
2019-05-03T04:04:38.202Z,58.74
2019-05-03T04:07:08.255Z,58.72
2019-05-03T04:09:38.277Z,58.72
2019-05-03T04:12:08.325Z,58.63
2019-05-03T04:14:59.298Z,58.57
2019-05-03T04:17:57.497Z,58.56
2019-05-03T04:20:30.441Z,58.56
2019-05-03T04:23:00.491Z,58.34
2019-05-03T04:25:30.513Z,58.30
2019-05-03T04:28:00.574Z,58.17
2019-05-03T04:30:30.596Z,58.17
2019-05-03T04:33:00.621Z,57.92
2019-05-03T04:35:30.662Z,57.92
2019-05-03T04:38:00.796Z,57.74
2019-05-03T04:40:30.847Z,57.87
2019-05-03T04:43:00.874Z,57.91
2019-05-03T04:45:30.916Z,57.95
2019-05-03T04:48:00.981Z,58.03
2019-05-03T04:50:31.004Z,58.03
2019-05-03T04:53:01.051Z,57.95
2019-05-03T04:55:31.090Z,57.90
2019-05-03T04:58:01.123Z,58.16
2019-05-03T05:00:31.154Z,57.99
2019-05-03T05:03:01.208Z,57.99
2019-05-03T05:05:31.252Z,58.02
2019-05-03T05:08:01.269Z,58.01
2019-05-03T05:10:31.307Z,58.01
2019-05-03T05:13:01.374Z,58.03
2019-05-03T05:15:31.397Z,58.03
2019-05-03T05:18:16.184Z,58.06
2019-05-03T05:20:55.511Z,58.08
2019-05-03T05:23:25.616Z,58.27
2019-05-03T05:26:02.793Z,58.21
2019-05-03T05:28:41.992Z,58.33
2019-05-03T05:31:12.021Z,58.39
2019-05-03T05:33:42.089Z,58.47
2019-05-03T05:36:12.122Z,58.49
2019-05-03T05:38:42.329Z,58.86
2019-05-03T05:41:12.346Z,58.75
2019-05-03T05:43:44.514Z,58.75
2019-05-03T05:46:14.705Z,58.83
2019-05-03T05:48:48.837Z,58.83
2019-05-03T05:51:19.923Z,58.90
2019-05-03T05:53:49.969Z,58.89
2019-05-03T05:56:41.717Z,58.87
2019-05-03T05:59:15.531Z,58.90
2019-05-03T06:01:50.878Z,58.91
2019-05-03T06:04:20.944Z,58.96
2019-05-03T06:07:15.808Z,59.00
2019-05-03T06:10:00.300Z,59.05
2019-05-03T06:12:37.374Z,59.22
2019-05-03T06:15:15.025Z,59.50
2019-05-03T06:17:52.557Z,59.66
2019-05-03T06:20:35.474Z,59.68
2019-05-03T06:23:24.846Z,59.80
2019-05-03T06:25:55.004Z,59.67
2019-05-03T06:28:31.551Z,59.54
2019-05-03T06:31:22.736Z,59.34
2019-05-03T06:33:52.602Z,59.43
2019-05-03T06:36:24.367Z,59.43
2019-05-03T06:38:55.455Z,59.35
2019-05-03T06:41:25.489Z,59.28
2019-05-03T06:43:55.696Z,59.06
2019-05-03T06:46:45.657Z,58.89
2019-05-03T06:49:15.638Z,58.72
2019-05-03T06:51:49.772Z,58.62
2019-05-03T06:54:20.790Z,58.62
2019-05-03T06:56:49.278Z,58.56
2019-05-03T06:59:27.573Z,58.48
2019-05-03T07:02:08.762Z,58.39
2019-05-03T07:04:42.584Z,58.39
2019-05-03T07:07:28.032Z,58.20
2019-05-03T07:10:06.292Z,58.08
2019-05-03T07:12:54.684Z,57.88
2019-05-03T07:15:25.314Z,57.72
2019-05-03T07:17:55.789Z,57.72
2019-05-03T07:20:25.859Z,57.89
2019-05-03T07:22:56.895Z,57.78
2019-05-03T07:25:26.920Z,57.78
2019-05-03T07:27:56.966Z,57.84
2019-05-03T07:30:26.994Z,57.86
2019-05-03T07:33:01.469Z,57.80
2019-05-03T07:35:31.483Z,57.80
2019-05-03T07:38:01.547Z,57.89
2019-05-03T07:40:31.564Z,57.60
2019-05-03T07:43:01.664Z,57.60
2019-05-03T07:45:31.705Z,57.85
2019-05-03T07:48:01.739Z,57.41
2019-05-03T07:50:33.327Z,57.49
2019-05-03T07:53:04.631Z,57.50
2019-05-03T07:55:56.786Z,57.29
2019-05-03T07:58:26.831Z,57.18
2019-05-03T08:01:06.075Z,57.20
2019-05-03T08:03:30.846Z,56.90
2019-05-03T08:06:00.909Z,56.64
2019-05-03T08:08:31.096Z,56.45
2019-05-03T08:11:01.204Z,56.11
2019-05-03T08:13:31.457Z,56.18
2019-05-03T08:16:01.481Z,55.99
2019-05-03T08:18:31.517Z,55.89
2019-05-03T08:21:01.564Z,55.94
2019-05-03T08:23:31.585Z,56.01
2019-05-03T08:26:01.626Z,55.98
2019-05-03T08:28:31.667Z,55.84
2019-05-03T08:31:20.561Z,55.68
2019-05-03T08:34:00.948Z,55.70
2019-05-03T08:36:39.539Z,55.65
2019-05-03T08:39:09.670Z,55.67
2019-05-03T08:41:56.211Z,55.57
2019-05-03T08:44:26.387Z,55.49
2019-05-03T08:46:57.516Z,55.33
2019-05-03T08:49:27.570Z,55.25
2019-05-03T08:51:57.587Z,55.21
2019-05-03T08:54:27.636Z,54.97
2019-05-03T08:56:57.673Z,55.01
2019-05-03T08:59:32.393Z,55.25
2019-05-03T09:02:05.182Z,55.22
2019-05-03T09:04:37.439Z,55.22
2019-05-03T09:07:05.531Z,55.11
2019-05-03T09:09:55.059Z,55.10
2019-05-03T09:12:25.353Z,55.16
2019-05-03T09:14:55.368Z,55.18
2019-05-03T09:17:25.445Z,54.90
2019-05-03T09:19:55.503Z,54.53
2019-05-03T09:22:25.673Z,54.56
2019-05-03T09:24:55.661Z,54.36
2019-05-03T09:27:25.700Z,54.31
2019-05-03T09:29:55.982Z,54.52
2019-05-03T09:32:25.941Z,54.71
2019-05-03T09:34:55.969Z,54.62
2019-05-03T09:37:26.014Z,54.65
2019-05-03T09:39:56.051Z,54.75
2019-05-03T09:42:27.601Z,54.89
2019-05-03T09:44:57.714Z,54.83
2019-05-03T09:47:27.746Z,54.85
2019-05-03T09:49:57.950Z,54.81
2019-05-03T09:52:28.000Z,54.72
2019-05-03T09:54:59.754Z,54.69
2019-05-03T09:57:29.778Z,54.64
2019-05-03T10:00:00.542Z,54.20
2019-05-03T10:02:31.421Z,54.31
2019-05-03T10:05:01.552Z,54.10
2019-05-03T10:07:31.599Z,53.97
2019-05-03T10:10:01.751Z,53.90
2019-05-03T10:12:31.928Z,54.15
2019-05-03T10:15:02.065Z,53.94
2019-05-03T10:17:52.276Z,53.62
2019-05-03T10:20:25.213Z,53.57
2019-05-03T10:22:58.201Z,53.15
2019-05-03T10:25:28.244Z,53.06
2019-05-03T10:27:58.263Z,53.15
2019-05-03T10:30:28.719Z,53.00
2019-05-03T10:33:07.428Z,53.09
2019-05-03T10:35:37.441Z,53.22
2019-05-03T10:38:07.492Z,53.38
2019-05-03T10:40:37.682Z,53.33
2019-05-03T10:43:08.883Z,53.25
2019-05-03T10:45:39.016Z,53.39
2019-05-03T10:48:09.105Z,53.31
2019-05-03T10:50:39.156Z,53.27
2019-05-03T10:53:15.397Z,53.07
2019-05-03T10:56:05.074Z,53.09
2019-05-03T10:58:35.681Z,53.36
2019-05-03T11:01:05.707Z,53.14
2019-05-03T11:03:35.809Z,53.06
2019-05-03T11:06:05.865Z,52.95
2019-05-03T11:08:35.876Z,52.72
2019-05-03T11:11:06.044Z,52.59
2019-05-03T11:13:37.189Z,52.70
2019-05-03T11:16:07.246Z,52.99
2019-05-03T11:18:37.252Z,52.62
2019-05-03T11:21:07.299Z,52.81
2019-05-03T11:23:37.345Z,52.75
2019-05-03T11:26:07.384Z,52.71
2019-05-03T11:28:37.445Z,52.28
2019-05-03T11:31:41.617Z,51.99
2019-05-03T11:34:15.121Z,51.18
2019-05-03T11:36:49.432Z,51.55
2019-05-03T11:39:19.485Z,51.68
2019-05-03T11:41:52.817Z,51.84
2019-05-03T11:44:40.912Z,52.02
2019-05-03T11:47:10.932Z,52.21
2019-05-03T11:49:41.089Z,52.27
2019-05-03T11:52:15.555Z,52.26
2019-05-03T11:54:45.348Z,51.65
2019-05-03T11:57:24.008Z,52.32
2019-05-03T11:59:54.762Z,52.82
2019-05-03T12:02:44.745Z,52.89
2019-05-03T12:05:24.547Z,53.18
2019-05-03T12:07:54.887Z,53.36
2019-05-03T12:10:36.684Z,53.19
2019-05-03T12:13:10.764Z,52.82
2019-05-03T12:15:41.044Z,52.59
2019-05-03T12:18:12.943Z,52.35
2019-05-03T12:20:44.291Z,52.23
2019-05-03T12:23:16.589Z,52.06
2019-05-03T12:25:47.128Z,52.02
2019-05-03T12:28:17.486Z,51.93
2019-05-03T12:30:47.530Z,51.77
2019-05-03T12:33:17.638Z,51.49
2019-05-03T12:35:47.697Z,51.56
2019-05-03T12:38:17.731Z,51.50
2019-05-03T12:40:47.777Z,51.82
2019-05-03T12:43:17.825Z,51.92
2019-05-03T12:45:48.801Z,51.62
2019-05-03T12:48:18.864Z,51.40
2019-05-03T12:50:50.370Z,51.44
2019-05-03T12:53:22.087Z,51.83
2019-05-03T12:55:52.146Z,51.98
2019-05-03T12:58:25.345Z,52.11
2019-05-03T13:01:06.542Z,52.22
2019-05-03T13:03:40.101Z,52.54
2019-05-03T13:06:10.121Z,52.56
2019-05-03T13:08:42.221Z,52.54
2019-05-03T13:11:12.257Z,52.72
2019-05-03T13:13:42.285Z,53.01
2019-05-03T13:16:15.787Z,53.06
2019-05-03T13:18:45.976Z,53.02
2019-05-03T13:21:15.969Z,52.99
2019-05-03T13:23:46.052Z,53.12
2019-05-03T13:26:16.189Z,53.10
2019-05-03T13:28:46.254Z,53.26
2019-05-03T13:31:16.305Z,53.39
2019-05-03T13:33:46.311Z,53.06
2019-05-03T13:36:16.343Z,52.55
2019-05-03T13:38:46.361Z,52.50
2019-05-03T13:41:16.389Z,52.71
2019-05-03T13:43:46.450Z,52.56
2019-05-03T13:46:16.531Z,52.67
2019-05-03T13:48:49.096Z,52.82
2019-05-03T13:51:18.303Z,52.79
2019-05-03T13:53:48.321Z,52.90
2019-05-03T13:56:18.378Z,53.10
2019-05-03T13:58:48.420Z,53.25
2019-05-03T14:01:18.426Z,53.39
2019-05-03T14:03:48.455Z,53.44
2019-05-03T14:06:18.496Z,52.99
2019-05-03T14:08:48.509Z,52.98
2019-05-03T14:11:18.556Z,52.85
2019-05-03T14:13:48.598Z,52.71
2019-05-03T14:16:18.634Z,52.84
2019-05-03T14:18:50.516Z,52.88
2019-05-03T14:21:25.352Z,52.40
2019-05-03T14:24:10.453Z,51.58
2019-05-03T14:26:41.337Z,51.62
2019-05-03T14:29:11.408Z,51.78
2019-05-03T14:31:41.414Z,52.12
2019-05-03T14:34:11.439Z,52.15
2019-05-03T14:36:41.486Z,51.95
2019-05-03T14:39:11.502Z,52.03
2019-05-03T14:41:41.564Z,51.96
2019-05-03T14:44:14.553Z,52.23
2019-05-03T14:46:45.658Z,52.80
2019-05-03T14:49:15.143Z,52.72
2019-05-03T14:51:45.687Z,52.79
2019-05-03T14:54:15.905Z,53.00
2019-05-03T14:56:56.202Z,53.05
2019-05-03T14:59:45.321Z,53.20
2019-05-03T15:02:43.550Z,53.08
2019-05-03T15:05:06.539Z,53.08
2019-05-03T15:07:36.588Z,53.03
2019-05-03T15:10:06.952Z,53.32
2019-05-03T15:12:37.065Z,53.44
2019-05-03T15:15:07.114Z,53.32
2019-05-03T15:17:37.147Z,53.64
2019-05-03T15:20:07.285Z,53.74
2019-05-03T15:22:37.303Z,53.72
2019-05-03T15:25:08.319Z,53.93
2019-05-03T15:27:38.406Z,53.89
2019-05-03T15:30:08.470Z,53.98
2019-05-03T15:32:38.526Z,54.11
2019-05-03T15:35:08.634Z,54.02
2019-05-03T15:37:38.872Z,54.08
2019-05-03T15:40:08.946Z,54.49
2019-05-03T15:42:41.078Z,54.42
2019-05-03T15:45:27.375Z,54.40
2019-05-03T15:48:21.028Z,54.50
2019-05-03T15:50:51.044Z,54.68
2019-05-03T15:53:21.153Z,54.87
2019-05-03T15:55:51.212Z,54.93
2019-05-03T15:58:21.231Z,55.01
2019-05-03T16:00:51.270Z,54.89
2019-05-03T16:03:21.330Z,54.80
2019-05-03T16:05:51.354Z,54.72
2019-05-03T16:08:21.406Z,54.91
2019-05-03T16:10:51.476Z,54.82
2019-05-03T16:13:21.529Z,54.77
2019-05-03T16:15:51.642Z,54.91
2019-05-03T16:18:21.881Z,55.07
2019-05-03T16:20:51.924Z,54.75
2019-05-03T16:23:22.213Z,54.32
2019-05-03T16:25:55.620Z,53.99
2019-05-03T16:28:49.266Z,54.36
2019-05-03T16:31:21.295Z,54.37
2019-05-03T16:33:51.311Z,54.11
2019-05-03T16:36:21.398Z,53.89
2019-05-03T16:38:51.446Z,53.81
2019-05-03T16:41:21.553Z,53.37
2019-05-03T16:43:51.890Z,53.40
2019-05-03T16:46:21.922Z,53.54
2019-05-03T16:48:51.957Z,53.46
2019-05-03T16:51:21.998Z,53.31
2019-05-03T16:53:52.036Z,52.59
2019-05-03T16:56:22.070Z,52.95
2019-05-03T16:58:52.124Z,53.21
2019-05-03T17:01:22.144Z,52.85
2019-05-03T17:03:57.380Z,51.40
2019-05-03T17:06:40.244Z,48.62
2019-05-03T17:09:35.338Z,48.82
2019-05-03T17:12:11.058Z,49.23
2019-05-03T17:14:41.109Z,49.00
2019-05-03T17:17:11.134Z,49.28
2019-05-03T17:19:41.417Z,48.44
2019-05-03T17:22:11.530Z,48.27
2019-05-03T17:24:41.607Z,48.88
2019-05-03T17:27:12.654Z,49.41
2019-05-03T17:29:44.522Z,49.23
2019-05-03T17:32:15.330Z,49.07
2019-05-03T17:34:45.536Z,48.12
2019-05-03T17:37:15.610Z,48.12
2019-05-03T17:40:00.485Z,47.48
2019-05-03T17:42:48.266Z,47.33
2019-05-03T17:45:25.375Z,45.49
2019-05-03T17:47:55.508Z,45.65
2019-05-03T17:50:25.530Z,44.95
2019-05-03T17:53:07.070Z,44.95
2019-05-03T17:55:52.222Z,43.96
2019-05-03T17:58:56.354Z,43.96
2019-05-03T18:01:55.406Z,44.86
2019-05-03T18:04:43.065Z,44.09
2019-05-03T18:07:32.105Z,44.05
2019-05-03T18:10:04.669Z,44.53
2019-05-03T18:12:35.031Z,45.82
2019-05-03T18:15:05.712Z,46.09
2019-05-03T18:17:37.032Z,46.27
2019-05-03T18:20:07.185Z,46.27
2019-05-03T18:22:37.212Z,46.35
2019-05-03T18:25:07.323Z,46.60
2019-05-03T18:27:37.366Z,46.64
2019-05-03T18:30:07.403Z,46.39
2019-05-03T18:32:37.433Z,46.98
2019-05-03T18:35:07.491Z,46.76
2019-05-03T18:37:37.521Z,47.08
2019-05-03T18:40:07.581Z,47.01
2019-05-03T18:42:44.768Z,46.32
2019-05-03T18:45:23.053Z,45.69
2019-05-03T18:47:54.472Z,45.69
2019-05-03T18:50:24.492Z,45.51
2019-05-03T18:52:55.424Z,45.27
2019-05-03T18:55:25.436Z,45.27
2019-05-03T18:57:55.583Z,45.66
2019-05-03T19:00:26.186Z,45.54
2019-05-03T19:02:56.232Z,45.51
2019-05-03T19:05:29.029Z,45.92
2019-05-03T19:08:10.265Z,45.38
2019-05-03T19:10:55.073Z,45.38
2019-05-03T19:13:34.726Z,45.26
2019-05-03T19:16:15.301Z,46.03
2019-05-03T19:18:45.461Z,45.95
2019-05-03T19:21:15.508Z,45.86
2019-05-03T19:23:45.540Z,45.59
2019-05-03T19:26:15.625Z,45.54
2019-05-03T19:28:45.652Z,45.92
2019-05-03T19:31:15.761Z,45.95
2019-05-03T19:33:45.789Z,45.95
2019-05-03T19:36:15.825Z,46.70
2019-05-03T19:38:45.866Z,47.11
2019-05-03T19:41:16.340Z,46.76
2019-05-03T19:43:46.471Z,46.77
2019-05-03T19:46:16.735Z,46.95
2019-05-03T19:48:46.746Z,47.01
2019-05-03T19:51:16.785Z,47.10
2019-05-03T19:53:51.313Z,47.28
2019-05-03T19:56:22.295Z,47.28
2019-05-03T19:58:59.725Z,47.77
2019-05-03T20:01:48.241Z,47.87
2019-05-03T20:04:43.293Z,47.62
2019-05-03T20:07:30.980Z,48.23
2019-05-03T20:10:01.023Z,48.51
2019-05-03T20:12:31.065Z,48.70
2019-05-03T20:15:01.133Z,49.18
2019-05-03T20:17:31.240Z,48.89
2019-05-03T20:20:01.384Z,48.91
2019-05-03T20:22:31.491Z,48.88
2019-05-03T20:25:01.523Z,48.95
2019-05-03T20:27:31.578Z,49.29
2019-05-03T20:30:01.652Z,49.38
2019-05-03T20:32:31.772Z,49.31
2019-05-03T20:35:12.876Z,49.13
2019-05-03T20:37:34.370Z,49.38
2019-05-03T20:40:05.439Z,49.51
2019-05-03T20:42:58.586Z,49.67
2019-05-03T20:45:49.419Z,49.81
2019-05-03T20:48:21.248Z,49.64
2019-05-03T20:50:51.311Z,50.08
2019-05-03T20:53:21.338Z,50.16
2019-05-03T20:55:51.397Z,50.17
2019-05-03T20:58:21.441Z,50.16
2019-05-03T21:00:51.470Z,49.78
2019-05-03T21:03:21.505Z,49.96
2019-05-03T21:05:51.629Z,50.22
2019-05-03T21:08:21.662Z,50.48
2019-05-03T21:10:51.720Z,50.42
2019-05-03T21:13:21.773Z,50.22
2019-05-03T21:16:02.476Z,50.30
2019-05-03T21:18:49.909Z,50.45
2019-05-03T21:21:44.805Z,50.45
2019-05-03T21:24:34.875Z,50.62
2019-05-03T21:27:05.918Z,50.75
2019-05-03T21:29:49.091Z,50.93
2019-05-03T21:32:19.197Z,51.00
2019-05-03T21:34:49.731Z,51.13
2019-05-03T21:37:19.890Z,51.20
2019-05-03T21:39:49.920Z,51.40
2019-05-03T21:42:19.953Z,51.46
2019-05-03T21:44:50.019Z,51.60
2019-05-03T21:47:37.631Z,51.66
2019-05-03T21:50:09.722Z,51.77
2019-05-03T21:52:39.744Z,51.87
2019-05-03T21:55:09.788Z,52.01
2019-05-03T21:57:39.835Z,52.44
2019-05-03T22:00:09.968Z,52.73
2019-05-03T22:02:41.867Z,52.98
2019-05-03T22:05:11.905Z,53.33
2019-05-03T22:07:41.963Z,53.69
2019-05-03T22:10:12.031Z,53.62
2019-05-03T22:12:42.068Z,53.83
2019-05-03T22:15:21.966Z,53.87
2019-05-03T22:18:15.217Z,53.74
2019-05-03T22:21:09.790Z,53.98
2019-05-03T22:23:57.175Z,53.95
2019-05-03T22:27:01.242Z,54.02
2019-05-03T22:29:31.280Z,53.78
2019-05-03T22:32:01.332Z,53.75
2019-05-03T22:34:31.377Z,53.68
2019-05-03T22:37:01.418Z,53.40
2019-05-03T22:39:31.459Z,53.36
2019-05-03T22:42:01.509Z,53.37
2019-05-03T22:44:31.532Z,53.39
2019-05-03T22:47:01.601Z,52.84
2019-05-03T22:49:31.669Z,52.55
2019-05-03T22:52:01.726Z,52.08
2019-05-03T22:54:31.880Z,51.64
2019-05-03T22:57:01.928Z,51.87
2019-05-03T22:59:31.970Z,51.83
2019-05-03T23:02:02.005Z,52.01
2019-05-03T23:04:32.063Z,52.13
2019-05-03T23:07:03.061Z,52.26
2019-05-03T23:09:35.141Z,52.53
2019-05-03T23:12:05.507Z,52.76
2019-05-03T23:14:35.672Z,52.78
2019-05-03T23:17:05.789Z,52.79
2019-05-03T23:19:37.509Z,53.22
2019-05-03T23:22:15.457Z,53.42
2019-05-03T23:24:45.637Z,53.58
2019-05-03T23:27:15.666Z,53.70
2019-05-03T23:29:45.872Z,53.67
2019-05-03T23:32:15.908Z,53.56
2019-05-03T23:34:46.489Z,53.39
2019-05-03T23:37:16.600Z,53.47
2019-05-03T23:39:46.621Z,53.09
2019-05-03T23:42:17.656Z,53.07
2019-05-03T23:44:47.696Z,53.21
2019-05-03T23:47:25.314Z,53.39
2019-05-03T23:49:56.288Z,53.38
2019-05-03T23:52:45.172Z,53.47
2019-05-03T23:55:35.369Z,53.57
2019-05-03T23:58:05.533Z,53.55
